sensor_id;sensor_type;location;lat;lon;timestamp;P1;durP1;ratioP1;P2;durP2;ratioP2
5880;SDS011;2966;52.598;10.928;2023-04-23T00:01:42;1.40;;;1.40;;
5880;SDS011;2966;52.598;10.928;2023-04-23T00:04:10;0.50;;;0.40;;
5880;SDS011;2966;52.598;10.928;2023-04-23T00:06:37;0.40;;;0.30;;
5880;SDS011;2966;52.598;10.928;2023-04-23T00:09:07;0.40;;;0.30;;
5880;SDS011;2966;52.598;10.928;2023-04-23T00:11:39;0.50;;;0.50;;
5880;SDS011;2966;52.598;10.928;2023-04-23T00:14:06;0.40;;;0.20;;
5880;SDS011;2966;52.598;10.928;2023-04-23T00:16:34;0.50;;;0.50;;
5880;SDS011;2966;52.598;10.928;2023-04-23T00:19:01;0.40;;;0.20;;
5880;SDS011;2966;52.598;10.928;2023-04-23T00:21:27;0.40;;;0.20;;
5880;SDS011;2966;52.598;10.928;2023-04-23T00:23:55;0.40;;;0.20;;
5880;SDS011;2966;52.598;10.928;2023-04-23T00:26:22;0.40;;;0.20;;
5880;SDS011;2966;52.598;10.928;2023-04-23T00:28:50;0.90;;;0.80;;
5880;SDS011;2966;52.598;10.928;2023-04-23T00:31:16;0.40;;;0.30;;
5880;SDS011;2966;52.598;10.928;2023-04-23T00:33:43;0.40;;;0.20;;
5880;SDS011;2966;52.598;10.928;2023-04-23T00:36:13;0.40;;;0.20;;
5880;SDS011;2966;52.598;10.928;2023-04-23T00:38:39;0.50;;;0.20;;
5880;SDS011;2966;52.598;10.928;2023-04-23T00:41:06;0.40;;;0.20;;
5880;SDS011;2966;52.598;10.928;2023-04-23T00:43:33;0.40;;;0.20;;
5880;SDS011;2966;52.598;10.928;2023-04-23T00:46:08;0.40;;;0.20;;
5880;SDS011;2966;52.598;10.928;2023-04-23T00:48:35;0.40;;;0.20;;
5880;SDS011;2966;52.598;10.928;2023-04-23T00:51:02;0.40;;;0.20;;
5880;SDS011;2966;52.598;10.928;2023-04-23T00:53:30;1.23;;;0.80;;
5880;SDS011;2966;52.598;10.928;2023-04-23T00:55:57;1.83;;;1.73;;
5880;SDS011;2966;52.598;10.928;2023-04-23T00:58:25;0.40;;;0.30;;
5880;SDS011;2966;52.598;10.928;2023-04-23T01:00:52;1.47;;;1.37;;
5880;SDS011;2966;52.598;10.928;2023-04-23T01:03:22;0.40;;;0.20;;
5880;SDS011;2966;52.598;10.928;2023-04-23T01:05:50;0.40;;;0.20;;
5880;SDS011;2966;52.598;10.928;2023-04-23T01:08:17;0.40;;;0.20;;
5880;SDS011;2966;52.598;10.928;2023-04-23T01:10:45;1.17;;;1.13;;
5880;SDS011;2966;52.598;10.928;2023-04-23T01:13:13;4.30;;;1.70;;
5880;SDS011;2966;52.598;10.928;2023-04-23T01:15:41;0.40;;;0.20;;
5880;SDS011;2966;52.598;10.928;2023-04-23T01:18:09;0.40;;;0.20;;
5880;SDS011;2966;52.598;10.928;2023-04-23T01:20:38;0.40;;;0.20;;
5880;SDS011;2966;52.598;10.928;2023-04-23T01:23:09;1.00;;;0.90;;
5880;SDS011;2966;52.598;10.928;2023-04-23T01:25:35;0.63;;;0.63;;
5880;SDS011;2966;52.598;10.928;2023-04-23T01:28:08;0.40;;;0.40;;
5880;SDS011;2966;52.598;10.928;2023-04-23T01:30:35;0.40;;;0.20;;
5880;SDS011;2966;52.598;10.928;2023-04-23T01:33:03;0.40;;;0.30;;
5880;SDS011;2966;52.598;10.928;2023-04-23T01:35:30;0.40;;;0.30;;
5880;SDS011;2966;52.598;10.928;2023-04-23T01:37:58;0.40;;;0.30;;
5880;SDS011;2966;52.598;10.928;2023-04-23T01:40:27;0.97;;;0.97;;
5880;SDS011;2966;52.598;10.928;2023-04-23T01:42:53;0.40;;;0.30;;
5880;SDS011;2966;52.598;10.928;2023-04-23T01:45:21;2.00;;;1.80;;
5880;SDS011;2966;52.598;10.928;2023-04-23T01:47:50;0.97;;;0.80;;
5880;SDS011;2966;52.598;10.928;2023-04-23T01:50:17;0.40;;;0.30;;
5880;SDS011;2966;52.598;10.928;2023-04-23T01:52:45;0.47;;;0.30;;
5880;SDS011;2966;52.598;10.928;2023-04-23T01:55:12;0.57;;;0.57;;
5880;SDS011;2966;52.598;10.928;2023-04-23T01:57:40;0.50;;;0.40;;
5880;SDS011;2966;52.598;10.928;2023-04-23T02:00:10;0.43;;;0.43;;
5880;SDS011;2966;52.598;10.928;2023-04-23T02:02:39;0.40;;;0.20;;
5880;SDS011;2966;52.598;10.928;2023-04-23T02:05:09;1.30;;;0.50;;
5880;SDS011;2966;52.598;10.928;2023-04-23T02:07:36;0.40;;;0.20;;
5880;SDS011;2966;52.598;10.928;2023-04-23T02:10:03;0.50;;;0.40;;
5880;SDS011;2966;52.598;10.928;2023-04-23T02:12:31;0.40;;;0.20;;
5880;SDS011;2966;52.598;10.928;2023-04-23T02:14:59;0.30;;;0.20;;
5880;SDS011;2966;52.598;10.928;2023-04-23T02:17:25;0.30;;;0.20;;
5880;SDS011;2966;52.598;10.928;2023-04-23T02:19:53;0.60;;;0.60;;
5880;SDS011;2966;52.598;10.928;2023-04-23T02:22:25;0.30;;;0.20;;
5880;SDS011;2966;52.598;10.928;2023-04-23T02:24:52;1.10;;;0.77;;
5880;SDS011;2966;52.598;10.928;2023-04-23T02:27:20;0.40;;;0.20;;
5880;SDS011;2966;52.598;10.928;2023-04-23T02:29:47;0.40;;;0.20;;
5880;SDS011;2966;52.598;10.928;2023-04-23T02:32:15;0.40;;;0.30;;
5880;SDS011;2966;52.598;10.928;2023-04-23T02:34:44;0.30;;;0.20;;
5880;SDS011;2966;52.598;10.928;2023-04-23T02:37:13;0.33;;;0.20;;
5880;SDS011;2966;52.598;10.928;2023-04-23T02:39:39;0.30;;;0.20;;
5880;SDS011;2966;52.598;10.928;2023-04-23T02:42:06;0.30;;;0.30;;
5880;SDS011;2966;52.598;10.928;2023-04-23T02:44:38;0.30;;;0.20;;
5880;SDS011;2966;52.598;10.928;2023-04-23T02:47:05;0.30;;;0.20;;
5880;SDS011;2966;52.598;10.928;2023-04-23T02:49:33;0.40;;;0.20;;
5880;SDS011;2966;52.598;10.928;2023-04-23T02:52:00;0.40;;;0.20;;
5880;SDS011;2966;52.598;10.928;2023-04-23T02:54:27;0.33;;;0.20;;
5880;SDS011;2966;52.598;10.928;2023-04-23T02:56:56;0.30;;;0.20;;
5880;SDS011;2966;52.598;10.928;2023-04-23T02:59:23;0.30;;;0.20;;
5880;SDS011;2966;52.598;10.928;2023-04-23T03:01:49;0.30;;;0.20;;
5880;SDS011;2966;52.598;10.928;2023-04-23T03:04:18;0.30;;;0.20;;
5880;SDS011;2966;52.598;10.928;2023-04-23T03:06:46;0.30;;;0.20;;
5880;SDS011;2966;52.598;10.928;2023-04-23T03:09:13;0.30;;;0.20;;
5880;SDS011;2966;52.598;10.928;2023-04-23T03:11:40;0.40;;;0.20;;
5880;SDS011;2966;52.598;10.928;2023-04-23T03:14:07;0.40;;;0.20;;
5880;SDS011;2966;52.598;10.928;2023-04-23T03:16:33;0.40;;;0.20;;
5880;SDS011;2966;52.598;10.928;2023-04-23T03:19:00;0.33;;;0.20;;
5880;SDS011;2966;52.598;10.928;2023-04-23T03:21:27;0.40;;;0.20;;
5880;SDS011;2966;52.598;10.928;2023-04-23T03:23:55;0.30;;;0.20;;
5880;SDS011;2966;52.598;10.928;2023-04-23T03:26:21;0.30;;;0.20;;
5880;SDS011;2966;52.598;10.928;2023-04-23T03:28:48;0.30;;;0.20;;
5880;SDS011;2966;52.598;10.928;2023-04-23T03:31:15;0.30;;;0.20;;
5880;SDS011;2966;52.598;10.928;2023-04-23T03:33:41;0.30;;;0.20;;
5880;SDS011;2966;52.598;10.928;2023-04-23T03:36:08;0.30;;;0.20;;
5880;SDS011;2966;52.598;10.928;2023-04-23T03:38:35;0.40;;;0.30;;
5880;SDS011;2966;52.598;10.928;2023-04-23T03:41:03;0.30;;;0.20;;
5880;SDS011;2966;52.598;10.928;2023-04-23T03:43:29;0.30;;;0.20;;
5880;SDS011;2966;52.598;10.928;2023-04-23T03:45:56;0.53;;;0.53;;
5880;SDS011;2966;52.598;10.928;2023-04-23T03:48:23;0.40;;;0.30;;
5880;SDS011;2966;52.598;10.928;2023-04-23T03:50:50;0.40;;;0.30;;
5880;SDS011;2966;52.598;10.928;2023-04-23T03:53:16;1.23;;;0.93;;
5880;SDS011;2966;52.598;10.928;2023-04-23T03:55:43;1.30;;;1.20;;
5880;SDS011;2966;52.598;10.928;2023-04-23T03:58:11;2.40;;;0.50;;
5880;SDS011;2966;52.598;10.928;2023-04-23T04:00:38;0.83;;;0.83;;
5880;SDS011;2966;52.598;10.928;2023-04-23T04:03:05;1.90;;;1.47;;
5880;SDS011;2966;52.598;10.928;2023-04-23T04:05:32;1.57;;;1.47;;
5880;SDS011;2966;52.598;10.928;2023-04-23T04:07:59;1.00;;;1.00;;
5880;SDS011;2966;52.598;10.928;2023-04-23T04:10:27;2.23;;;2.03;;
5880;SDS011;2966;52.598;10.928;2023-04-23T04:12:53;4.53;;;3.50;;
5880;SDS011;2966;52.598;10.928;2023-04-23T04:15:21;1.37;;;1.27;;
5880;SDS011;2966;52.598;10.928;2023-04-23T04:17:48;1.33;;;1.23;;
5880;SDS011;2966;52.598;10.928;2023-04-23T04:20:15;0.40;;;0.40;;
5880;SDS011;2966;52.598;10.928;2023-04-23T04:22:41;0.93;;;0.93;;
5880;SDS011;2966;52.598;10.928;2023-04-23T04:25:08;2.83;;;2.57;;
5880;SDS011;2966;52.598;10.928;2023-04-23T04:27:36;4.53;;;4.20;;
5880;SDS011;2966;52.598;10.928;2023-04-23T04:30:03;2.53;;;2.33;;
5880;SDS011;2966;52.598;10.928;2023-04-23T04:32:32;1.33;;;1.23;;
5880;SDS011;2966;52.598;10.928;2023-04-23T04:34:59;5.97;;;1.63;;
5880;SDS011;2966;52.598;10.928;2023-04-23T04:37:26;5.70;;;1.17;;
5880;SDS011;2966;52.598;10.928;2023-04-23T04:39:53;0.47;;;0.47;;
5880;SDS011;2966;52.598;10.928;2023-04-23T04:42:20;1.07;;;1.03;;
5880;SDS011;2966;52.598;10.928;2023-04-23T04:44:46;1.80;;;0.60;;
5880;SDS011;2966;52.598;10.928;2023-04-23T04:47:13;3.17;;;2.67;;
5880;SDS011;2966;52.598;10.928;2023-04-23T04:49:41;3.23;;;3.00;;
5880;SDS011;2966;52.598;10.928;2023-04-23T04:52:08;0.43;;;0.43;;
5880;SDS011;2966;52.598;10.928;2023-04-23T04:54:35;5.10;;;2.40;;
5880;SDS011;2966;52.598;10.928;2023-04-23T04:57:01;5.53;;;5.03;;
5880;SDS011;2966;52.598;10.928;2023-04-23T04:59:28;3.43;;;1.27;;
5880;SDS011;2966;52.598;10.928;2023-04-23T05:01:55;0.50;;;0.50;;
5880;SDS011;2966;52.598;10.928;2023-04-23T05:04:22;7.10;;;3.70;;
5880;SDS011;2966;52.598;10.928;2023-04-23T05:06:50;2.80;;;2.60;;
5880;SDS011;2966;52.598;10.928;2023-04-23T05:09:16;1.57;;;1.40;;
5880;SDS011;2966;52.598;10.928;2023-04-23T05:11:43;0.30;;;0.20;;
5880;SDS011;2966;52.598;10.928;2023-04-23T05:14:10;2.70;;;2.60;;
5880;SDS011;2966;52.598;10.928;2023-04-23T05:16:36;1.07;;;0.53;;
5880;SDS011;2966;52.598;10.928;2023-04-23T05:19:03;2.40;;;1.73;;
5880;SDS011;2966;52.598;10.928;2023-04-23T05:21:30;1.57;;;1.47;;
5880;SDS011;2966;52.598;10.928;2023-04-23T05:23:58;3.63;;;3.43;;
5880;SDS011;2966;52.598;10.928;2023-04-23T05:26:25;2.07;;;1.63;;
5880;SDS011;2966;52.598;10.928;2023-04-23T05:28:51;5.37;;;2.60;;
5880;SDS011;2966;52.598;10.928;2023-04-23T05:31:18;2.57;;;2.10;;
5880;SDS011;2966;52.598;10.928;2023-04-23T05:33:45;6.40;;;2.93;;
5880;SDS011;2966;52.598;10.928;2023-04-23T05:36:11;4.63;;;2.27;;
5880;SDS011;2966;52.598;10.928;2023-04-23T05:38:38;0.70;;;0.70;;
5880;SDS011;2966;52.598;10.928;2023-04-23T05:41:06;1.37;;;1.37;;
5880;SDS011;2966;52.598;10.928;2023-04-23T05:43:33;3.53;;;3.33;;
5880;SDS011;2966;52.598;10.928;2023-04-23T05:46:00;6.67;;;5.93;;
5880;SDS011;2966;52.598;10.928;2023-04-23T05:48:28;6.03;;;5.50;;
5880;SDS011;2966;52.598;10.928;2023-04-23T05:50:55;4.83;;;2.77;;
5880;SDS011;2966;52.598;10.928;2023-04-23T05:53:21;5.93;;;3.47;;
5880;SDS011;2966;52.598;10.928;2023-04-23T05:55:48;10.07;;;7.60;;
5880;SDS011;2966;52.598;10.928;2023-04-23T05:58:16;7.67;;;7.23;;
5880;SDS011;2966;52.598;10.928;2023-04-23T06:00:43;3.83;;;3.43;;
5880;SDS011;2966;52.598;10.928;2023-04-23T06:03:10;5.30;;;4.00;;
5880;SDS011;2966;52.598;10.928;2023-04-23T06:05:36;9.73;;;7.53;;
5880;SDS011;2966;52.598;10.928;2023-04-23T06:08:03;2.63;;;2.50;;
5880;SDS011;2966;52.598;10.928;2023-04-23T06:10:30;1.53;;;1.37;;
5880;SDS011;2966;52.598;10.928;2023-04-23T06:12:57;4.43;;;4.07;;
5880;SDS011;2966;52.598;10.928;2023-04-23T06:15:25;4.77;;;2.00;;
5880;SDS011;2966;52.598;10.928;2023-04-23T06:17:51;0.57;;;0.57;;
5880;SDS011;2966;52.598;10.928;2023-04-23T06:20:18;3.80;;;3.60;;
5880;SDS011;2966;52.598;10.928;2023-04-23T06:22:45;6.33;;;2.50;;
5880;SDS011;2966;52.598;10.928;2023-04-23T06:25:12;5.37;;;5.07;;
5880;SDS011;2966;52.598;10.928;2023-04-23T06:27:39;6.80;;;5.43;;
5880;SDS011;2966;52.598;10.928;2023-04-23T06:30:06;3.00;;;2.90;;
5880;SDS011;2966;52.598;10.928;2023-04-23T06:32:34;5.13;;;4.63;;
5880;SDS011;2966;52.598;10.928;2023-04-23T06:35:01;2.73;;;2.53;;
5880;SDS011;2966;52.598;10.928;2023-04-23T06:37:28;5.70;;;4.17;;
5880;SDS011;2966;52.598;10.928;2023-04-23T06:39:55;3.03;;;2.30;;
5880;SDS011;2966;52.598;10.928;2023-04-23T06:42:22;7.50;;;6.03;;
5880;SDS011;2966;52.598;10.928;2023-04-23T06:44:49;5.40;;;4.97;;
5880;SDS011;2966;52.598;10.928;2023-04-23T06:47:16;15.70;;;7.00;;
5880;SDS011;2966;52.598;10.928;2023-04-23T06:49:45;3.80;;;2.33;;
5880;SDS011;2966;52.598;10.928;2023-04-23T06:52:12;6.83;;;5.97;;
5880;SDS011;2966;52.598;10.928;2023-04-23T06:54:38;2.63;;;2.47;;
5880;SDS011;2966;52.598;10.928;2023-04-23T06:57:05;1.00;;;1.00;;
5880;SDS011;2966;52.598;10.928;2023-04-23T06:59:32;4.43;;;4.13;;
5880;SDS011;2966;52.598;10.928;2023-04-23T07:01:58;1.33;;;1.30;;
5880;SDS011;2966;52.598;10.928;2023-04-23T07:04:25;0.80;;;0.80;;
5880;SDS011;2966;52.598;10.928;2023-04-23T07:06:53;0.87;;;0.87;;
5880;SDS011;2966;52.598;10.928;2023-04-23T07:09:24;4.60;;;4.40;;
5880;SDS011;2966;52.598;10.928;2023-04-23T07:11:51;4.57;;;4.10;;
5880;SDS011;2966;52.598;10.928;2023-04-23T07:14:18;2.43;;;2.30;;
5880;SDS011;2966;52.598;10.928;2023-04-23T07:16:44;2.00;;;1.90;;
5880;SDS011;2966;52.598;10.928;2023-04-23T07:19:11;2.87;;;2.17;;
5880;SDS011;2966;52.598;10.928;2023-04-23T07:21:38;3.37;;;3.13;;
5880;SDS011;2966;52.598;10.928;2023-04-23T07:24:09;4.40;;;3.60;;
5880;SDS011;2966;52.598;10.928;2023-04-23T07:26:35;2.00;;;1.63;;
5880;SDS011;2966;52.598;10.928;2023-04-23T07:29:03;2.83;;;2.73;;
5880;SDS011;2966;52.598;10.928;2023-04-23T07:31:31;0.87;;;0.53;;
5880;SDS011;2966;52.598;10.928;2023-04-23T07:33:59;1.90;;;1.80;;
5880;SDS011;2966;52.598;10.928;2023-04-23T07:36:25;2.47;;;2.37;;
5880;SDS011;2966;52.598;10.928;2023-04-23T07:38:53;4.20;;;3.73;;
5880;SDS011;2966;52.598;10.928;2023-04-23T07:41:21;4.67;;;4.27;;
5880;SDS011;2966;52.598;10.928;2023-04-23T07:43:50;28.30;;;6.03;;
5880;SDS011;2966;52.598;10.928;2023-04-23T07:46:17;4.60;;;2.27;;
5880;SDS011;2966;52.598;10.928;2023-04-23T07:48:44;1.27;;;1.27;;
5880;SDS011;2966;52.598;10.928;2023-04-23T07:51:11;4.07;;;2.20;;
5880;SDS011;2966;52.598;10.928;2023-04-23T07:53:37;4.20;;;2.47;;
5880;SDS011;2966;52.598;10.928;2023-04-23T07:56:04;1.80;;;1.40;;
5880;SDS011;2966;52.598;10.928;2023-04-23T07:58:32;1.40;;;1.40;;
5880;SDS011;2966;52.598;10.928;2023-04-23T08:01:00;2.97;;;1.60;;
5880;SDS011;2966;52.598;10.928;2023-04-23T08:03:27;9.00;;;2.50;;
5880;SDS011;2966;52.598;10.928;2023-04-23T08:05:53;2.00;;;1.90;;
5880;SDS011;2966;52.598;10.928;2023-04-23T08:08:20;4.60;;;3.47;;
5880;SDS011;2966;52.598;10.928;2023-04-23T08:10:47;2.60;;;2.40;;
5880;SDS011;2966;52.598;10.928;2023-04-23T08:13:14;1.07;;;0.70;;
5880;SDS011;2966;52.598;10.928;2023-04-23T08:15:42;1.13;;;1.13;;
5880;SDS011;2966;52.598;10.928;2023-04-23T08:18:09;0.30;;;0.20;;
5880;SDS011;2966;52.598;10.928;2023-04-23T08:20:35;0.30;;;0.20;;
5880;SDS011;2966;52.598;10.928;2023-04-23T08:23:02;2.30;;;2.10;;
5880;SDS011;2966;52.598;10.928;2023-04-23T08:25:32;0.40;;;0.40;;
5880;SDS011;2966;52.598;10.928;2023-04-23T08:27:58;0.93;;;0.80;;
5880;SDS011;2966;52.598;10.928;2023-04-23T08:30:25;1.67;;;1.53;;
5880;SDS011;2966;52.598;10.928;2023-04-23T08:32:53;1.77;;;1.67;;
5880;SDS011;2966;52.598;10.928;2023-04-23T08:35:20;3.47;;;2.47;;
5880;SDS011;2966;52.598;10.928;2023-04-23T08:37:48;2.87;;;1.57;;
5880;SDS011;2966;52.598;10.928;2023-04-23T08:40:15;2.43;;;1.60;;
5880;SDS011;2966;52.598;10.928;2023-04-23T08:42:43;1.60;;;1.50;;
5880;SDS011;2966;52.598;10.928;2023-04-23T08:45:14;2.20;;;1.87;;
5880;SDS011;2966;52.598;10.928;2023-04-23T08:47:41;0.43;;;0.43;;
5880;SDS011;2966;52.598;10.928;2023-04-23T08:50:10;7.50;;;2.60;;
5880;SDS011;2966;52.598;10.928;2023-04-23T08:52:39;1.43;;;1.27;;
5880;SDS011;2966;52.598;10.928;2023-04-23T08:55:07;1.23;;;1.23;;
5880;SDS011;2966;52.598;10.928;2023-04-23T08:57:35;3.30;;;1.33;;
5880;SDS011;2966;52.598;10.928;2023-04-23T09:00:04;1.80;;;1.70;;
5880;SDS011;2966;52.598;10.928;2023-04-23T09:02:31;0.73;;;0.40;;
5880;SDS011;2966;52.598;10.928;2023-04-23T09:05:01;0.30;;;0.20;;
5880;SDS011;2966;52.598;10.928;2023-04-23T09:07:29;3.13;;;3.03;;
5880;SDS011;2966;52.598;10.928;2023-04-23T09:09:56;0.40;;;0.20;;
5880;SDS011;2966;52.598;10.928;2023-04-23T09:12:23;0.37;;;0.30;;
5880;SDS011;2966;52.598;10.928;2023-04-23T09:14:50;0.50;;;0.50;;
5880;SDS011;2966;52.598;10.928;2023-04-23T09:17:17;2.00;;;0.87;;
5880;SDS011;2966;52.598;10.928;2023-04-23T09:19:44;0.80;;;0.40;;
5880;SDS011;2966;52.598;10.928;2023-04-23T09:22:13;1.13;;;1.03;;
5880;SDS011;2966;52.598;10.928;2023-04-23T09:24:41;1.57;;;0.83;;
5880;SDS011;2966;52.598;10.928;2023-04-23T09:27:08;0.40;;;0.20;;
5880;SDS011;2966;52.598;10.928;2023-04-23T09:29:38;0.93;;;0.80;;
5880;SDS011;2966;52.598;10.928;2023-04-23T09:32:09;1.13;;;1.03;;
5880;SDS011;2966;52.598;10.928;2023-04-23T09:34:36;0.33;;;0.20;;
5880;SDS011;2966;52.598;10.928;2023-04-23T09:37:03;0.40;;;0.30;;
5880;SDS011;2966;52.598;10.928;2023-04-23T09:39:32;1.13;;;0.73;;
5880;SDS011;2966;52.598;10.928;2023-04-23T09:42:04;1.90;;;1.40;;
5880;SDS011;2966;52.598;10.928;2023-04-23T09:44:33;0.40;;;0.40;;
5880;SDS011;2966;52.598;10.928;2023-04-23T09:47:06;2.03;;;1.50;;
5880;SDS011;2966;52.598;10.928;2023-04-23T09:49:43;0.40;;;0.20;;
5880;SDS011;2966;52.598;10.928;2023-04-23T09:52:11;0.43;;;0.37;;
5880;SDS011;2966;52.598;10.928;2023-04-23T09:54:41;2.20;;;2.00;;
5880;SDS011;2966;52.598;10.928;2023-04-23T09:57:11;0.40;;;0.40;;
5880;SDS011;2966;52.598;10.928;2023-04-23T09:59:38;2.00;;;0.87;;
5880;SDS011;2966;52.598;10.928;2023-04-23T10:02:05;0.73;;;0.73;;
5880;SDS011;2966;52.598;10.928;2023-04-23T10:04:33;0.40;;;0.20;;
5880;SDS011;2966;52.598;10.928;2023-04-23T10:07:03;0.50;;;0.50;;
5880;SDS011;2966;52.598;10.928;2023-04-23T10:09:32;0.50;;;0.47;;
5880;SDS011;2966;52.598;10.928;2023-04-23T10:12:00;0.77;;;0.40;;
5880;SDS011;2966;52.598;10.928;2023-04-23T10:14:29;0.70;;;0.70;;
5880;SDS011;2966;52.598;10.928;2023-04-23T10:16:56;0.40;;;0.20;;
5880;SDS011;2966;52.598;10.928;2023-04-23T10:19:24;1.27;;;1.20;;
5880;SDS011;2966;52.598;10.928;2023-04-23T10:21:53;0.70;;;0.50;;
5880;SDS011;2966;52.598;10.928;2023-04-23T10:24:22;1.73;;;1.63;;
5880;SDS011;2966;52.598;10.928;2023-04-23T10:26:52;0.50;;;0.40;;
5880;SDS011;2966;52.598;10.928;2023-04-23T10:29:25;1.80;;;0.60;;
5880;SDS011;2966;52.598;10.928;2023-04-23T10:31:54;1.60;;;0.80;;
5880;SDS011;2966;52.598;10.928;2023-04-23T10:34:23;0.40;;;0.20;;
5880;SDS011;2966;52.598;10.928;2023-04-23T10:36:50;0.40;;;0.20;;
5880;SDS011;2966;52.598;10.928;2023-04-23T10:39:17;0.70;;;0.30;;
5880;SDS011;2966;52.598;10.928;2023-04-23T10:41:45;0.40;;;0.20;;
5880;SDS011;2966;52.598;10.928;2023-04-23T10:44:13;0.50;;;0.50;;
5880;SDS011;2966;52.598;10.928;2023-04-23T10:46:49;0.40;;;0.20;;
5880;SDS011;2966;52.598;10.928;2023-04-23T10:49:18;0.40;;;0.20;;
5880;SDS011;2966;52.598;10.928;2023-04-23T10:51:48;0.40;;;0.40;;
5880;SDS011;2966;52.598;10.928;2023-04-23T10:54:24;0.40;;;0.20;;
5880;SDS011;2966;52.598;10.928;2023-04-23T10:56:57;0.40;;;0.20;;
5880;SDS011;2966;52.598;10.928;2023-04-23T10:59:25;0.40;;;0.20;;
5880;SDS011;2966;52.598;10.928;2023-04-23T11:01:55;0.50;;;0.30;;
5880;SDS011;2966;52.598;10.928;2023-04-23T11:04:27;0.40;;;0.20;;
5880;SDS011;2966;52.598;10.928;2023-04-23T11:06:55;0.40;;;0.20;;
5880;SDS011;2966;52.598;10.928;2023-04-23T11:09:39;1.47;;;0.73;;
5880;SDS011;2966;52.598;10.928;2023-04-23T11:12:10;3.73;;;1.70;;
5880;SDS011;2966;52.598;10.928;2023-04-23T11:14:44;0.50;;;0.40;;
5880;SDS011;2966;52.598;10.928;2023-04-23T11:17:12;1.80;;;1.70;;
5880;SDS011;2966;52.598;10.928;2023-04-23T11:22:34;0.40;;;0.20;;
5880;SDS011;2966;52.598;10.928;2023-04-23T11:25:02;9.80;;;3.37;;
5880;SDS011;2966;52.598;10.928;2023-04-23T11:27:30;0.40;;;0.30;;
5880;SDS011;2966;52.598;10.928;2023-04-23T11:29:57;0.50;;;0.40;;
5880;SDS011;2966;52.598;10.928;2023-04-23T11:32:24;0.40;;;0.20;;
5880;SDS011;2966;52.598;10.928;2023-04-23T11:34:54;0.97;;;0.97;;
5880;SDS011;2966;52.598;10.928;2023-04-23T11:37:23;1.33;;;1.17;;
5880;SDS011;2966;52.598;10.928;2023-04-23T11:39:50;0.40;;;0.20;;
5880;SDS011;2966;52.598;10.928;2023-04-23T11:42:17;0.40;;;0.20;;
5880;SDS011;2966;52.598;10.928;2023-04-23T11:44:45;0.40;;;0.20;;
5880;SDS011;2966;52.598;10.928;2023-04-23T11:47:13;4.30;;;2.10;;
5880;SDS011;2966;52.598;10.928;2023-04-23T11:49:42;0.60;;;0.60;;
5880;SDS011;2966;52.598;10.928;2023-04-23T11:52:11;1.23;;;1.23;;
5880;SDS011;2966;52.598;10.928;2023-04-23T11:54:39;0.40;;;0.20;;
5880;SDS011;2966;52.598;10.928;2023-04-23T11:57:07;1.00;;;1.00;;
5880;SDS011;2966;52.598;10.928;2023-04-23T11:59:34;1.50;;;1.17;;
5880;SDS011;2966;52.598;10.928;2023-04-23T12:02:00;0.40;;;0.20;;
5880;SDS011;2966;52.598;10.928;2023-04-23T12:04:28;0.40;;;0.20;;
5880;SDS011;2966;52.598;10.928;2023-04-23T12:06:56;0.40;;;0.20;;
5880;SDS011;2966;52.598;10.928;2023-04-23T12:09:25;0.40;;;0.20;;
5880;SDS011;2966;52.598;10.928;2023-04-23T12:11:53;1.03;;;1.03;;
5880;SDS011;2966;52.598;10.928;2023-04-23T12:14:24;0.40;;;0.20;;
5880;SDS011;2966;52.598;10.928;2023-04-23T12:16:54;1.17;;;1.07;;
5880;SDS011;2966;52.598;10.928;2023-04-23T12:19:26;0.40;;;0.20;;
5880;SDS011;2966;52.598;10.928;2023-04-23T12:21:55;0.40;;;0.20;;
5880;SDS011;2966;52.598;10.928;2023-04-23T12:24:25;0.40;;;0.30;;
5880;SDS011;2966;52.598;10.928;2023-04-23T12:26:53;0.40;;;0.30;;
5880;SDS011;2966;52.598;10.928;2023-04-23T12:29:25;0.40;;;0.20;;
5880;SDS011;2966;52.598;10.928;2023-04-23T12:31:52;0.40;;;0.30;;
5880;SDS011;2966;52.598;10.928;2023-04-23T12:34:23;1.90;;;1.27;;
5880;SDS011;2966;52.598;10.928;2023-04-23T12:36:50;0.50;;;0.47;;
5880;SDS011;2966;52.598;10.928;2023-04-23T12:39:28;0.40;;;0.20;;
5880;SDS011;2966;52.598;10.928;2023-04-23T12:41:58;0.40;;;0.20;;
5880;SDS011;2966;52.598;10.928;2023-04-23T12:44:26;0.40;;;0.20;;
5880;SDS011;2966;52.598;10.928;2023-04-23T12:46:54;0.40;;;0.20;;
5880;SDS011;2966;52.598;10.928;2023-04-23T12:49:21;2.10;;;0.63;;
5880;SDS011;2966;52.598;10.928;2023-04-23T12:51:48;0.63;;;0.63;;
5880;SDS011;2966;52.598;10.928;2023-04-23T12:54:16;0.40;;;0.20;;
5880;SDS011;2966;52.598;10.928;2023-04-23T12:56:44;1.77;;;1.10;;
5880;SDS011;2966;52.598;10.928;2023-04-23T12:59:11;0.87;;;0.87;;
5880;SDS011;2966;52.598;10.928;2023-04-23T13:01:37;0.63;;;0.63;;
5880;SDS011;2966;52.598;10.928;2023-04-23T13:04:04;0.40;;;0.20;;
5880;SDS011;2966;52.598;10.928;2023-04-23T13:06:34;0.40;;;0.20;;
5880;SDS011;2966;52.598;10.928;2023-04-23T13:09:01;2.33;;;2.20;;
5880;SDS011;2966;52.598;10.928;2023-04-23T13:11:29;3.30;;;2.80;;
5880;SDS011;2966;52.598;10.928;2023-04-23T13:13:57;0.40;;;0.20;;
5880;SDS011;2966;52.598;10.928;2023-04-23T13:16:24;0.40;;;0.30;;
5880;SDS011;2966;52.598;10.928;2023-04-23T13:18:51;0.40;;;0.20;;
5880;SDS011;2966;52.598;10.928;2023-04-23T13:21:17;0.40;;;0.20;;
5880;SDS011;2966;52.598;10.928;2023-04-23T13:23:44;0.90;;;0.80;;
5880;SDS011;2966;52.598;10.928;2023-04-23T13:26:11;0.60;;;0.50;;
5880;SDS011;2966;52.598;10.928;2023-04-23T13:28:38;0.40;;;0.20;;
5880;SDS011;2966;52.598;10.928;2023-04-23T13:31:09;0.80;;;0.80;;
5880;SDS011;2966;52.598;10.928;2023-04-23T13:33:37;0.50;;;0.50;;
5880;SDS011;2966;52.598;10.928;2023-04-23T13:36:04;2.10;;;2.00;;
5880;SDS011;2966;52.598;10.928;2023-04-23T13:38:32;0.40;;;0.20;;
5880;SDS011;2966;52.598;10.928;2023-04-23T13:41:01;0.40;;;0.20;;
5880;SDS011;2966;52.598;10.928;2023-04-23T13:43:28;0.40;;;0.20;;
5880;SDS011;2966;52.598;10.928;2023-04-23T13:45:55;0.40;;;0.30;;
5880;SDS011;2966;52.598;10.928;2023-04-23T13:48:23;0.50;;;0.50;;
5880;SDS011;2966;52.598;10.928;2023-04-23T13:50:55;0.40;;;0.20;;
5880;SDS011;2966;52.598;10.928;2023-04-23T13:53:21;0.40;;;0.20;;
5880;SDS011;2966;52.598;10.928;2023-04-23T13:55:48;0.40;;;0.20;;
5880;SDS011;2966;52.598;10.928;2023-04-23T13:58:15;0.50;;;0.40;;
5880;SDS011;2966;52.598;10.928;2023-04-23T14:04:08;0.40;;;0.20;;
5880;SDS011;2966;52.598;10.928;2023-04-23T14:06:35;1.03;;;1.03;;
5880;SDS011;2966;52.598;10.928;2023-04-23T14:09:01;0.40;;;0.30;;
5880;SDS011;2966;52.598;10.928;2023-04-23T14:11:28;0.40;;;0.20;;
5880;SDS011;2966;52.598;10.928;2023-04-23T14:13:55;0.40;;;0.20;;
5880;SDS011;2966;52.598;10.928;2023-04-23T14:16:22;2.00;;;1.90;;
5880;SDS011;2966;52.598;10.928;2023-04-23T14:18:49;0.40;;;0.20;;
5880;SDS011;2966;52.598;10.928;2023-04-23T14:21:17;0.40;;;0.20;;
5880;SDS011;2966;52.598;10.928;2023-04-23T14:23:48;0.40;;;0.30;;
5880;SDS011;2966;52.598;10.928;2023-04-23T14:26:20;0.40;;;0.20;;
5880;SDS011;2966;52.598;10.928;2023-04-23T14:28:55;0.40;;;0.20;;
5880;SDS011;2966;52.598;10.928;2023-04-23T14:31:23;0.50;;;0.40;;
5880;SDS011;2966;52.598;10.928;2023-04-23T14:33:49;0.40;;;0.20;;
5880;SDS011;2966;52.598;10.928;2023-04-23T14:36:18;0.40;;;0.20;;
5880;SDS011;2966;52.598;10.928;2023-04-23T14:38:45;0.40;;;0.37;;
5880;SDS011;2966;52.598;10.928;2023-04-23T14:41:11;1.17;;;1.17;;
5880;SDS011;2966;52.598;10.928;2023-04-23T14:43:38;0.40;;;0.20;;
5880;SDS011;2966;52.598;10.928;2023-04-23T14:46:05;0.40;;;0.20;;
5880;SDS011;2966;52.598;10.928;2023-04-23T14:48:31;0.40;;;0.20;;
5880;SDS011;2966;52.598;10.928;2023-04-23T14:50:59;0.40;;;0.20;;
5880;SDS011;2966;52.598;10.928;2023-04-23T14:53:27;1.23;;;1.10;;
5880;SDS011;2966;52.598;10.928;2023-04-23T14:55:54;0.40;;;0.20;;
5880;SDS011;2966;52.598;10.928;2023-04-23T14:58:21;0.40;;;0.20;;
5880;SDS011;2966;52.598;10.928;2023-04-23T15:00:50;0.40;;;0.20;;
5880;SDS011;2966;52.598;10.928;2023-04-23T15:03:16;0.83;;;0.83;;
5880;SDS011;2966;52.598;10.928;2023-04-23T15:05:53;0.40;;;0.20;;
5880;SDS011;2966;52.598;10.928;2023-04-23T15:08:20;0.40;;;0.30;;
5880;SDS011;2966;52.598;10.928;2023-04-23T15:10:49;0.63;;;0.60;;